Time;durP1;ratioP1;P1;durP2;ratioP2;P2;SDS_P1;SDS_P2;PMS_P1;PMS_P2;Temp;Humidity;BMP_temperature;BMP_pressure;BME280_temperature;BME280_humidity;BME280_pressure;Samples;Min_cycle;Max_cycle;Signal;HPM_P1;HPM_P2
2023/09/21 00:00:39;;;;;;;10.50;5.63;;;19.40;81.20;;;;;;5034933;28;20359;-71
2023/09/21 00:03:06;;;;;;;9.02;5.72;;;19.50;81.50;;;;;;5034881;28;20053;-71
2023/09/21 00:05:32;;;;;;;7.90;5.32;;;19.50;81.40;;;;;;5034858;28;20029;-70
2023/09/21 00:07:59;;;;;;;9.80;4.93;;;19.40;81.60;;;;;;5038168;28;20044;-70
2023/09/21 00:10:31;;;;;;;9.48;5.00;;;19.50;81.50;;;;;;5039075;28;20030;-72
2023/09/21 00:13:00;;;;;;;9.55;5.15;;;19.50;81.40;;;;;;5039457;28;20033;-71
2023/09/21 00:15:29;;;;;;;9.73;4.93;;;19.40;81.50;;;;;;5038595;28;20017;-71
2023/09/21 00:17:57;;;;;;;9.32;5.20;;;19.50;81.60;;;;;;5039159;28;20030;-70
2023/09/21 00:20:28;;;;;;;8.07;4.47;;;19.50;81.60;;;;;;5038586;28;20060;-71
2023/09/21 00:22:55;;;;;;;7.55;4.78;;;19.50;81.60;;;;;;5038781;28;20061;-70
2023/09/21 00:25:32;;;;;;;9.30;5.10;;;19.50;81.50;;;;;;5038475;28;20029;-71
2023/09/21 00:27:58;;;;;;;10.10;5.30;;;19.50;81.40;;;;;;5039066;28;20487;-70
2023/09/21 00:30:24;;;;;;;8.75;5.43;;;19.50;81.50;;;;;;5038449;28;20037;-71
2023/09/21 00:32:50;;;;;;;8.18;5.30;;;19.50;81.60;;;;;;5038184;28;20053;-72
2023/09/21 00:35:17;;;;;;;9.32;5.00;;;19.50;81.40;;;;;;5038797;28;20036;-70
2023/09/21 00:37:43;;;;;;;8.52;5.07;;;19.50;81.40;;;;;;5038484;28;20029;-71
2023/09/21 00:40:19;;;;;;;8.63;4.80;;;19.50;81.50;;;;;;5038774;28;20021;-71
2023/09/21 00:42:46;;;;;;;8.48;4.90;;;19.50;81.40;;;;;;5038395;28;20033;-70
2023/09/21 00:45:14;;;;;;;10.52;5.97;;;19.50;81.50;;;;;;5038154;28;20039;-70
2023/09/21 00:47:49;;;;;;;10.07;5.43;;;19.50;81.40;;;;;;5038041;28;20029;-71
2023/09/21 00:50:22;;;;;;;10.38;5.97;;;19.50;81.30;;;;;;5038631;28;20347;-71
2023/09/21 00:52:54;;;;;;;14.75;6.60;;;19.50;81.40;;;;;;5022227;28;20075;-71
2023/09/21 00:55:24;;;;;;;13.45;6.13;;;19.40;81.40;;;;;;5038458;28;20022;-70
2023/09/21 00:57:55;;;;;;;10.23;5.75;;;19.40;81.40;;;;;;5037943;28;20033;-71
2023/09/21 01:00:30;;;;;;;12.90;6.32;;;19.40;81.40;;;;;;5021164;28;20021;-71
2023/09/21 01:03:07;;;;;;;16.35;6.70;;;19.40;81.50;;;;;;5037770;28;20036;-70
2023/09/21 01:05:34;;;;;;;12.98;6.30;;;19.40;81.50;;;;;;5037783;28;20359;-70
2023/09/21 01:08:01;;;;;;;12.68;7.15;;;19.40;81.60;;;;;;5037740;28;20029;-72
2023/09/21 01:10:28;;;;;;;8.70;5.22;;;19.40;81.80;;;;;;5037712;28;20044;-70
2023/09/21 01:12:55;;;;;;;12.10;6.07;;;19.40;81.80;;;;;;5020274;28;20443;-71
2023/09/21 01:15:21;;;;;;;10.18;6.03;;;19.30;81.90;;;;;;5037509;28;20036;-72
2023/09/21 01:17:48;;;;;;;9.95;6.28;;;19.40;81.90;;;;;;5037028;28;20026;-71
2023/09/21 01:20:18;;;;;;;8.35;5.60;;;19.40;81.90;;;;;;5037808;28;20079;-70
2023/09/21 01:22:50;;;;;;;8.75;5.47;;;19.40;81.80;;;;;;5037661;28;20131;-72
2023/09/21 01:25:16;;;;;;;11.57;5.25;;;19.40;81.80;;;;;;5037920;28;20027;-71
2023/09/21 01:27:42;;;;;;;10.48;5.65;;;19.30;81.80;;;;;;5037392;28;20033;-72
2023/09/21 01:30:12;;;;;;;9.55;5.47;;;19.40;81.90;;;;;;5037527;28;20450;-71
2023/09/21 01:32:40;;;;;;;7.63;5.05;;;19.30;81.80;;;;;;5037049;28;20424;-72
2023/09/21 01:35:07;;;;;;;8.60;5.20;;;19.40;81.80;;;;;;5037102;28;20030;-70
2023/09/21 01:37:35;;;;;;;8.10;5.47;;;19.40;81.70;;;;;;5037103;28;20144;-70
2023/09/21 01:40:16;;;;;;;9.43;5.15;;;19.40;81.80;;;;;;5037103;28;20080;-71
2023/09/21 01:42:48;;;;;;;7.55;4.78;;;19.40;81.80;;;;;;5037585;28;20025;-72
2023/09/21 01:45:15;;;;;;;9.75;5.38;;;19.40;81.70;;;;;;5037285;28;20113;-71
2023/09/21 01:47:41;;;;;;;7.32;5.00;;;19.30;81.70;;;;;;5037548;28;20335;-71
2023/09/21 01:50:11;;;;;;;8.00;5.07;;;19.30;81.70;;;;;;5019497;28;20025;-70
2023/09/21 01:52:39;;;;;;;7.68;4.93;;;19.30;81.70;;;;;;5036758;28;20470;-72
2023/09/21 01:55:10;;;;;;;6.07;4.40;;;19.30;81.80;;;;;;5037076;28;20030;-71
2023/09/21 01:57:38;;;;;;;10.95;4.38;;;19.30;81.70;;;;;;5036811;28;20034;-70
2023/09/21 02:00:29;;;;;;;7.80;4.20;;;19.30;81.70;;;;;;5036759;28;20447;-70
2023/09/21 02:02:56;;;;;;;6.50;4.07;;;19.30;81.60;;;;;;5036108;28;20053;-71
2023/09/21 02:05:23;;;;;;;8.80;4.30;;;19.20;81.60;;;;;;5036630;28;20044;-71
2023/09/21 02:07:50;;;;;;;7.50;4.25;;;19.20;81.60;;;;;;5019633;28;20104;-71
2023/09/21 02:10:17;;;;;;;8.55;4.93;;;19.10;81.60;;;;;;5036806;28;20025;-70
2023/09/21 02:13:00;;;;;;;5.88;3.97;;;19.10;81.60;;;;;;5036388;28;20098;-71
2023/09/21 02:15:27;;;;;;;7.78;4.38;;;19.10;81.60;;;;;;5036936;28;20144;-71
2023/09/21 02:17:55;;;;;;;7.85;4.55;;;19.00;81.70;;;;;;5036418;28;20022;-71
2023/09/21 02:20:26;;;;;;;7.47;4.28;;;19.00;81.50;;;;;;5036288;28;20026;-71
2023/09/21 02:23:01;;;;;;;6.35;3.67;;;18.90;81.60;;;;;;5036527;28;20037;-71
2023/09/21 02:25:31;;;;;;;8.80;4.20;;;18.90;81.50;;;;;;5036578;28;20034;-71
2023/09/21 02:27:58;;;;;;;9.40;4.30;;;18.90;81.40;;;;;;5018936;28;20017;-71
2023/09/21 02:30:24;;;;;;;6.68;3.90;;;18.80;81.50;;;;;;5035445;28;20132;-72
2023/09/21 02:32:52;;;;;;;7.53;3.85;;;18.70;81.40;;;;;;5035899;28;20050;-72
2023/09/21 02:35:25;;;;;;;6.60;3.95;;;18.70;81.50;;;;;;5018968;28;20029;-70
2023/09/21 02:37:52;;;;;;;6.03;3.67;;;18.70;81.30;;;;;;5036633;28;20028;-71
2023/09/21 02:40:21;;;;;;;6.15;3.40;;;18.60;81.40;;;;;;5036281;28;20022;-71
2023/09/21 02:42:49;;;;;;;5.80;3.35;;;18.60;81.40;;;;;;5035875;28;20013;-71
2023/09/21 02:45:17;;;;;;;4.05;3.05;;;18.50;81.40;;;;;;5035952;28;20029;-70
2023/09/21 02:47:43;;;;;;;7.90;3.10;;;18.50;81.50;;;;;;5035826;28;20029;-71
2023/09/21 02:50:25;;;;;;;6.22;3.08;;;18.50;81.50;;;;;;5035810;28;20032;-70
2023/09/21 02:52:54;;;;;;;4.22;2.90;;;18.50;81.60;;;;;;5035992;28;20347;-71
2023/09/21 02:55:22;;;;;;;6.30;3.00;;;18.50;81.60;;;;;;5035575;28;20034;-70
2023/09/21 02:57:55;;;;;;;4.25;3.00;;;18.50;81.60;;;;;;5035633;28;20336;-71
2023/09/21 03:00:34;;;;;;;8.55;3.05;;;18.40;81.60;;;;;;5035979;28;20098;-71
2023/09/21 03:03:04;;;;;;;4.40;2.50;;;18.40;81.50;;;;;;5019905;28;20025;-71
2023/09/21 03:05:32;;;;;;;5.82;2.85;;;18.40;81.50;;;;;;5035834;28;20057;-70
2023/09/21 03:08:09;;;;;;;4.88;2.97;;;18.40;81.60;;;;;;5035451;28;20451;-70
2023/09/21 03:10:36;;;;;;;6.38;2.80;;;18.40;81.40;;;;;;5019861;28;20080;-71
2023/09/21 03:13:02;;;;;;;6.55;3.25;;;18.30;81.40;;;;;;5035613;28;20040;-71
2023/09/21 03:15:29;;;;;;;5.55;3.22;;;18.30;81.50;;;;;;5035349;28;20048;-70
2023/09/21 03:17:55;;;;;;;3.30;2.63;;;18.20;81.50;;;;;;5035313;28;20354;-70
2023/09/21 03:20:37;;;;;;;5.03;3.25;;;18.20;81.40;;;;;;5035588;28;20022;-71
2023/09/21 03:23:05;;;;;;;5.75;3.65;;;18.10;81.50;;;;;;5035527;28;20026;-70
2023/09/21 03:25:33;;;;;;;6.93;3.20;;;18.10;81.70;;;;;;5035573;28;20033;-71
2023/09/21 03:28:06;;;;;;;6.70;3.38;;;18.00;81.60;;;;;;5035548;28;20427;-71
2023/09/21 03:30:32;;;;;;;7.28;3.38;;;18.00;81.80;;;;;;5036025;28;20044;-71
2023/09/21 03:32:59;;;;;;;6.32;3.50;;;18.00;81.80;;;;;;5000903;28;20046;-71
2023/09/21 03:35:27;;;;;;;5.07;3.10;;;18.00;81.70;;;;;;4996021;28;20034;-71
2023/09/21 03:37:54;;;;;;;5.72;3.70;;;17.90;81.70;;;;;;4995782;28;20030;-70
2023/09/21 03:40:20;;;;;;;8.73;3.63;;;18.00;81.90;;;;;;4995702;28;20356;-70
2023/09/21 03:42:46;;;;;;;8.20;3.65;;;17.90;81.60;;;;;;4998886;28;20018;-70
2023/09/21 03:45:16;;;;;;;7.93;3.70;;;17.90;81.80;;;;;;4999859;28;20122;-71
2023/09/21 03:47:42;;;;;;;4.80;3.58;;;17.90;81.90;;;;;;5000038;28;20033;-71
2023/09/21 03:50:12;;;;;;;7.68;4.00;;;17.80;82.00;;;;;;4999745;28;20113;-71
2023/09/21 03:52:40;;;;;;;7.60;3.53;;;17.80;81.70;;;;;;4999948;28;20165;-71
2023/09/21 03:55:08;;;;;;;6.47;3.30;;;17.80;81.80;;;;;;4999586;28;20022;-70
2023/09/21 03:57:34;;;;;;;7.85;3.38;;;17.70;81.90;;;;;;4999583;28;20022;-71
2023/09/21 04:00:00;;;;;;;8.20;3.15;;;17.70;81.60;;;;;;4999619;28;20030;-71
2023/09/21 04:02:26;;;;;;;6.70;2.83;;;17.70;81.90;;;;;;4999459;28;20035;-71
2023/09/21 04:04:53;;;;;;;5.57;2.85;;;17.60;81.80;;;;;;4999740;28;20034;-71
2023/09/21 04:07:19;;;;;;;6.50;2.85;;;17.70;81.80;;;;;;4999977;28;20440;-70
2023/09/21 04:09:46;;;;;;;4.68;2.97;;;17.70;81.60;;;;;;4999447;28;20041;-71
2023/09/21 04:12:13;;;;;;;5.50;3.00;;;17.60;81.70;;;;;;4999295;28;20363;-70
2023/09/21 04:14:46;;;;;;;6.60;3.08;;;17.60;81.70;;;;;;4999247;28;20114;-70
2023/09/21 04:17:12;;;;;;;6.28;3.03;;;17.60;81.50;;;;;;4999286;28;20143;-71
2023/09/21 04:19:39;;;;;;;5.68;2.67;;;17.60;81.60;;;;;;4999525;28;20077;-70
2023/09/21 04:22:05;;;;;;;6.13;2.55;;;17.50;81.60;;;;;;4998182;28;20400;-71
2023/09/21 04:24:31;;;;;;;5.35;2.65;;;17.50;81.50;;;;;;4999704;28;20416;-71
2023/09/21 04:26:58;;;;;;;3.88;2.55;;;17.50;81.50;;;;;;4999786;28;20034;-71
2023/09/21 04:29:25;;;;;;;4.97;2.70;;;17.50;81.50;;;;;;4999123;28;20023;-70
2023/09/21 04:31:51;;;;;;;4.40;2.38;;;17.50;81.60;;;;;;5007320;28;20045;-71
2023/09/21 04:34:17;;;;;;;4.43;2.42;;;17.50;81.60;;;;;;5038498;28;20076;-71
2023/09/21 04:36:43;;;;;;;5.05;2.20;;;17.50;81.60;;;;;;5038283;28;20029;-71
2023/09/21 04:39:14;;;;;;;5.25;2.67;;;17.50;81.60;;;;;;5038201;28;20423;-71
2023/09/21 04:41:40;;;;;;;3.20;2.20;;;17.50;81.60;;;;;;5038149;28;20328;-70
2023/09/21 04:44:08;;;;;;;4.32;2.28;;;17.40;81.60;;;;;;5038675;28;20025;-70
2023/09/21 04:46:36;;;;;;;4.53;2.35;;;17.40;81.70;;;;;;5038361;28;20124;-71
2023/09/21 04:49:04;;;;;;;2.70;2.05;;;17.40;81.70;;;;;;5038328;28;20083;-71
2023/09/21 04:51:30;;;;;;;6.07;2.30;;;17.40;81.70;;;;;;5037945;28;20021;-71
2023/09/21 04:53:56;;;;;;;4.03;2.25;;;17.40;81.70;;;;;;5037127;28;20080;-71
2023/09/21 04:56:23;;;;;;;4.38;2.30;;;17.40;81.70;;;;;;5037853;28;20427;-71
2023/09/21 04:58:50;;;;;;;5.40;2.20;;;17.50;81.60;;;;;;5037885;28;20096;-71
2023/09/21 05:01:16;;;;;;;3.15;2.22;;;17.50;81.60;;;;;;5037803;28;20451;-71
2023/09/21 05:03:42;;;;;;;3.20;2.38;;;17.50;81.70;;;;;;5038550;28;20034;-71
2023/09/21 05:06:08;;;;;;;3.55;2.25;;;17.50;81.70;;;;;;5037707;28;20021;-70
2023/09/21 05:08:36;;;;;;;5.00;2.50;;;17.60;81.70;;;;;;5020216;28;20493;-71
2023/09/21 05:11:04;;;;;;;3.47;2.47;;;17.60;81.60;;;;;;5037495;28;20336;-71
2023/09/21 05:13:31;;;;;;;3.03;2.28;;;17.60;81.60;;;;;;5037881;28;20026;-71
2023/09/21 05:15:57;;;;;;;4.35;2.60;;;17.70;81.60;;;;;;5037808;28;20109;-71
2023/09/21 05:18:23;;;;;;;4.93;2.50;;;17.80;81.60;;;;;;5037491;28;20036;-71
2023/09/21 05:20:51;;;;;;;3.35;2.30;;;17.90;81.50;;;;;;5037414;28;20064;-70
2023/09/21 05:23:18;;;;;;;4.97;2.50;;;17.90;81.50;;;;;;5037671;28;20095;-71
2023/09/21 05:25:44;;;;;;;6.38;2.50;;;18.00;81.40;;;;;;5019936;28;20026;-70
2023/09/21 05:28:10;;;;;;;4.82;2.65;;;18.20;81.40;;;;;;5037331;28;20044;-71
2023/09/21 05:30:36;;;;;;;6.75;2.80;;;18.50;81.30;;;;;;5037311;28;20022;-71
2023/09/21 05:33:03;;;;;;;5.90;2.53;;;19.00;80.90;;;;;;5037483;28;20146;-71
2023/09/21 05:35:29;;;;;;;7.38;3.10;;;19.40;80.00;;;;;;5037392;28;20033;-71
2023/09/21 05:37:55;;;;;;;5.85;2.70;;;19.80;79.00;;;;;;5037688;28;20053;-71
2023/09/21 05:40:21;;;;;;;4.45;2.60;;;19.90;78.40;;;;;;5037145;28;20448;-71
2023/09/21 05:42:47;;;;;;;4.57;2.70;;;20.00;78.10;;;;;;5019897;28;20035;-70
2023/09/21 05:45:13;;;;;;;6.15;3.22;;;20.00;78.00;;;;;;5037023;28;20399;-71
2023/09/21 05:47:39;;;;;;;3.72;2.40;;;20.00;77.90;;;;;;5019658;28;20063;-70
2023/09/21 05:50:07;;;;;;;9.00;5.53;;;20.00;77.50;;;;;;5036929;28;20088;-71
2023/09/21 05:52:35;;;;;;;12.98;8.75;;;20.10;77.40;;;;;;5036733;28;20031;-71
2023/09/21 05:55:02;;;;;;;9.43;5.10;;;20.20;77.40;;;;;;5036739;28;20080;-71
2023/09/21 05:57:28;;;;;;;7.70;4.10;;;20.20;77.40;;;;;;5019849;28;20017;-70
2023/09/21 05:59:54;;;;;;;5.68;3.58;;;20.70;77.60;;;;;;5037003;28;20072;-71
2023/09/21 06:02:21;;;;;;;5.38;3.03;;;21.60;76.60;;;;;;5036643;28;20092;-70
2023/09/21 06:05:01;;;;;;;6.47;3.20;;;22.70;75.00;;;;;;5037036;28;20044;-69
2023/09/21 06:07:27;;;;;;;6.10;3.25;;;24.10;72.40;;;;;;5037145;28;20431;-71
2023/09/21 06:09:53;;;;;;;3.78;2.60;;;25.00;68.40;;;;;;5037071;28;20108;-70
2023/09/21 06:12:19;;;;;;;3.65;2.80;;;24.90;67.40;;;;;;5036685;28;20040;-70
2023/09/21 06:14:45;;;;;;;4.47;2.63;;;24.40;67.60;;;;;;5018929;28;20030;-71
2023/09/21 06:17:13;;;;;;;4.78;2.45;;;23.90;68.40;;;;;;5036925;28;20028;-71
2023/09/21 06:19:39;;;;;;;5.03;2.55;;;23.40;69.30;;;;;;5036308;28;20451;-70
2023/09/21 06:22:05;;;;;;;5.65;2.90;;;22.90;70.10;;;;;;5018814;28;20037;-70
2023/09/21 06:24:31;;;;;;;7.05;2.90;;;22.60;70.80;;;;;;5036563;28;20097;-71
2023/09/21 06:26:57;;;;;;;5.35;2.80;;;22.30;71.50;;;;;;5036239;28;20021;-72
2023/09/21 06:29:24;;;;;;;4.95;2.75;;;22.00;72.00;;;;;;5036457;28;20022;-71
2023/09/21 06:31:54;;;;;;;5.18;2.80;;;21.70;72.60;;;;;;5018411;28;20048;-71
2023/09/21 06:34:24;;;;;;;5.53;3.17;;;21.50;73.10;;;;;;5036016;28;20026;-70
2023/09/21 06:36:52;;;;;;;5.80;3.60;;;21.30;73.50;;;;;;5035972;28;20026;-69
2023/09/21 06:39:20;;;;;;;4.30;2.67;;;21.20;73.90;;;;;;5018969;28;20084;-70
2023/09/21 06:41:47;;;;;;;4.75;2.92;;;21.00;74.20;;;;;;5018719;28;20053;-71
2023/09/21 06:44:15;;;;;;;9.70;3.25;;;20.90;74.60;;;;;;5036126;28;20025;-71
2023/09/21 06:46:41;;;;;;;5.22;3.13;;;20.80;74.90;;;;;;5035833;28;20014;-69
2023/09/21 06:49:07;;;;;;;4.32;2.80;;;20.70;75.20;;;;;;5018420;28;20068;-72
2023/09/21 06:51:33;;;;;;;3.63;2.85;;;20.60;75.40;;;;;;5036183;28;20057;-71
2023/09/21 06:54:00;;;;;;;6.00;3.35;;;20.50;75.70;;;;;;5035651;28;20083;-72
2023/09/21 06:56:31;;;;;;;4.63;3.30;;;20.50;75.90;;;;;;5035724;28;20033;-69
2023/09/21 06:58:57;;;;;;;6.25;3.55;;;20.40;76.20;;;;;;5018194;28;20036;-72
2023/09/21 07:01:26;;;;;;;6.22;3.38;;;20.30;76.50;;;;;;5035473;28;20026;-71
2023/09/21 07:03:52;;;;;;;7.97;3.53;;;20.30;76.60;;;;;;5035736;28;20021;-70
2023/09/21 07:06:19;;;;;;;8.60;3.65;;;20.20;76.90;;;;;;5035495;28;20033;-70
2023/09/21 07:08:47;;;;;;;6.20;3.45;;;20.10;77.00;;;;;;5035408;28;20037;-72
2023/09/21 07:11:15;;;;;;;5.95;3.17;;;20.10;77.10;;;;;;5035532;28;20355;-71
2023/09/21 07:13:42;;;;;;;5.45;3.10;;;20.10;77.20;;;;;;5034620;28;20044;-71
2023/09/21 07:16:08;;;;;;;7.45;3.17;;;20.00;77.30;;;;;;5032765;28;20562;-71
2023/09/21 07:18:36;;;;;;;5.20;3.20;;;20.00;77.40;;;;;;5034841;28;20021;-71
2023/09/21 07:21:03;;;;;;;5.68;3.58;;;20.00;77.50;;;;;;5035153;28;20036;-71
2023/09/21 07:23:28;;;;;;;7.90;3.50;;;20.00;77.40;;;;;;5035533;28;20083;-70
2023/09/21 07:25:57;;;;;;;9.00;3.80;;;20.00;77.50;;;;;;5035495;28;20056;-69
2023/09/21 07:28:24;;;;;;;7.78;3.70;;;20.00;77.60;;;;;;5035194;28;20049;-71
2023/09/21 07:30:53;;;;;;;7.50;3.80;;;19.90;77.70;;;;;;5034965;28;20044;-70
2023/09/21 07:33:22;;;;;;;7.93;3.88;;;19.90;77.90;;;;;;5034939;28;20483;-70
2023/09/21 07:35:50;;;;;;;8.15;3.75;;;19.90;78.00;;;;;;5018495;28;20108;-71
2023/09/21 07:38:19;;;;;;;7.00;4.03;;;19.90;78.50;;;;;;5035063;28;20033;-72
2023/09/21 07:40:45;;;;;;;7.43;3.88;;;19.90;78.50;;;;;;5017687;28;20028;-70
2023/09/21 07:43:12;;;;;;;7.43;3.85;;;19.90;78.50;;;;;;5035022;28;20029;-71
2023/09/21 07:45:38;;;;;;;8.35;3.95;;;19.90;78.50;;;;;;5035103;28;20033;-72
2023/09/21 07:48:05;;;;;;;6.70;3.10;;;20.00;78.30;;;;;;5035587;28;20029;-70
2023/09/21 07:50:34;;;;;;;6.15;3.03;;;20.00;77.80;;;;;;5034978;28;20017;-70
2023/09/21 07:53:03;;;;;;;6.97;3.38;;;20.00;77.80;;;;;;5034835;28;20467;-70
2023/09/21 07:55:30;;;;;;;4.13;2.88;;;20.00;77.80;;;;;;5017539;28;20036;-69
2023/09/21 07:57:56;;;;;;;6.38;2.83;;;20.00;77.80;;;;;;5034978;28;20022;-72
2023/09/21 08:00:23;;;;;;;6.00;3.13;;;20.10;77.80;;;;;;5001248;28;20029;-70
2023/09/21 08:02:49;;;;;;;9.20;4.18;;;20.20;77.60;;;;;;5034827;28;20022;-72
2023/09/21 08:05:15;;;;;;;8.50;4.18;;;20.30;77.30;;;;;;5034890;28;20025;-70
2023/09/21 08:07:41;;;;;;;12.60;4.32;;;20.20;77.30;;;;;;5035154;28;20073;-72
2023/09/21 08:10:10;;;;;;;14.27;5.20;;;20.20;77.50;;;;;;5001166;28;20025;-71
2023/09/21 08:12:38;;;;;;;8.38;4.05;;;20.20;77.90;;;;;;5035008;28;20104;-70
2023/09/21 08:15:11;;;;;;;9.30;4.90;;;20.20;77.90;;;;;;5017272;28;20028;-72
2023/09/21 08:17:38;;;;;;;11.57;5.47;;;20.20;78.00;;;;;;5018347;28;20050;-71
2023/09/21 08:20:09;;;;;;;8.02;4.90;;;20.20;78.30;;;;;;5034753;28;20096;-72
2023/09/21 08:22:35;;;;;;;9.75;5.07;;;20.20;78.10;;;;;;5034624;28;20034;-70
2023/09/21 08:25:04;;;;;;;11.07;4.50;;;20.20;78.30;;;;;;5034980;28;20021;-72
2023/09/21 08:27:30;;;;;;;9.63;4.68;;;20.20;78.10;;;;;;5018081;28;20029;-70
2023/09/21 08:29:57;;;;;;;6.60;4.18;;;20.20;78.10;;;;;;5021014;28;20462;-72
2023/09/21 08:32:25;;;;;;;10.48;4.80;;;20.30;78.10;;;;;;5038316;28;20514;-71
2023/09/21 08:34:52;;;;;;;9.57;4.43;;;20.40;78.10;;;;;;5038347;28;20056;-72
2023/09/21 08:37:18;;;;;;;11.52;4.78;;;20.40;78.10;;;;;;5038112;28;20083;-70
2023/09/21 08:39:44;;;;;;;7.18;4.40;;;20.40;78.20;;;;;;5038177;28;20018;-70
2023/09/21 08:42:10;;;;;;;8.18;4.50;;;20.40;78.20;;;;;;5038308;28;20471;-71
2023/09/21 08:44:43;;;;;;;8.00;4.47;;;20.50;78.10;;;;;;5038275;28;20022;-71
2023/09/21 08:47:15;;;;;;;8.05;5.15;;;20.60;78.00;;;;;;5038494;28;20040;-70
2023/09/21 08:49:46;;;;;;;11.90;5.55;;;20.60;77.80;;;;;;5038212;28;20075;-70
2023/09/21 08:52:13;;;;;;;8.90;5.30;;;20.70;77.80;;;;;;5037963;28;20032;-71
2023/09/21 08:54:40;;;;;;;10.60;5.95;;;20.80;77.80;;;;;;5037573;28;20109;-70
2023/09/21 08:57:11;;;;;;;9.15;5.70;;;20.90;77.80;;;;;;5037791;28;20097;-71
2023/09/21 08:59:45;;;;;;;10.43;5.10;;;20.90;77.90;;;;;;5038220;28;20036;-69
2023/09/21 09:02:14;;;;;;;13.45;5.55;;;20.90;78.00;;;;;;5037912;28;20030;-71
2023/09/21 09:04:43;;;;;;;9.75;4.65;;;20.90;78.00;;;;;;5037818;28;20018;-70
2023/09/21 09:07:12;;;;;;;7.32;4.07;;;20.90;77.60;;;;;;5020239;28;20411;-71
2023/09/21 09:09:39;;;;;;;9.40;4.40;;;20.90;77.50;;;;;;5037933;28;20029;-70
2023/09/21 09:12:21;;;;;;;6.38;4.18;;;20.90;77.40;;;;;;5020412;28;20071;-71
2023/09/21 09:14:49;;;;;;;7.25;4.10;;;21.00;77.30;;;;;;5037810;28;20029;-71
2023/09/21 09:17:15;;;;;;;7.60;3.83;;;21.10;77.30;;;;;;5037844;28;20485;-71
2023/09/21 09:19:42;;;;;;;5.90;3.53;;;21.30;76.80;;;;;;5038064;28;20029;-71
2023/09/21 09:22:10;;;;;;;6.43;3.88;;;21.40;76.40;;;;;;5019973;28;20056;-70
2023/09/21 09:24:37;;;;;;;7.00;4.07;;;21.60;76.20;;;;;;5037458;28;20072;-70
2023/09/21 09:27:04;;;;;;;6.40;3.92;;;21.70;75.60;;;;;;5037419;28;20486;-70
2023/09/21 09:29:30;;;;;;;10.32;4.22;;;21.90;74.90;;;;;;5037244;28;20489;-71
2023/09/21 09:31:56;;;;;;;8.02;4.47;;;21.90;74.90;;;;;;5037433;28;20116;-70
2023/09/21 09:34:22;;;;;;;9.80;4.20;;;22.00;74.60;;;;;;5037262;28;20063;-71
2023/09/21 09:36:51;;;;;;;7.57;4.18;;;22.10;74.20;;;;;;5037156;28;20026;-70
2023/09/21 09:39:19;;;;;;;11.10;4.25;;;22.10;74.60;;;;;;5036595;28;20053;-70
2023/09/21 09:41:50;;;;;;;9.63;4.03;;;22.10;73.80;;;;;;5037286;28;20021;-71
2023/09/21 09:44:22;;;;;;;6.55;3.80;;;22.20;73.40;;;;;;5037345;28;20021;-70
2023/09/21 09:46:51;;;;;;;9.60;4.38;;;22.20;73.50;;;;;;5037636;28;20402;-71
2023/09/21 09:49:20;;;;;;;8.07;3.88;;;22.40;73.70;;;;;;5036893;28;20033;-70
2023/09/21 09:51:49;;;;;;;7.10;4.32;;;22.60;74.10;;;;;;5036836;28;20026;-71
2023/09/21 09:54:16;;;;;;;9.20;3.70;;;22.90;73.50;;;;;;5019549;28;20033;-71
2023/09/21 09:56:43;;;;;;;8.07;3.72;;;23.10;73.40;;;;;;5036793;28;20025;-70
2023/09/21 09:59:12;;;;;;;7.60;3.85;;;23.20;73.00;;;;;;5037283;28;20096;-70
2023/09/21 10:01:41;;;;;;;6.47;3.50;;;23.30;72.20;;;;;;5019917;28;20112;-71
2023/09/21 10:04:11;;;;;;;5.72;3.50;;;23.20;70.70;;;;;;5019619;28;20025;-71
2023/09/21 10:06:41;;;;;;;6.13;3.40;;;23.30;70.90;;;;;;5037166;28;20021;-71
2023/09/21 10:09:11;;;;;;;6.38;3.40;;;23.40;70.50;;;;;;5036852;28;20045;-71
2023/09/21 10:11:40;;;;;;;6.93;3.40;;;23.40;70.30;;;;;;5019521;28;20446;-71
2023/09/21 10:14:07;;;;;;;5.90;3.53;;;23.50;70.00;;;;;;5036815;28;20033;-71
2023/09/21 10:16:38;;;;;;;6.10;3.17;;;23.70;69.90;;;;;;5036700;28;20021;-70
2023/09/21 10:19:17;;;;;;;8.02;3.50;;;23.70;67.20;;;;;;5036669;28;20026;-69
2023/09/21 10:21:45;;;;;;;6.43;3.30;;;23.70;67.50;;;;;;5036315;28;20048;-70
2023/09/21 10:24:16;;;;;;;5.60;3.22;;;23.70;68.40;;;;;;5036556;28;20021;-72
2023/09/21 10:26:53;;;;;;;5.85;3.50;;;23.70;68.60;;;;;;5018848;28;20052;-71
2023/09/21 10:29:28;;;;;;;7.45;3.30;;;23.90;68.60;;;;;;5036182;28;20088;-71
2023/09/21 10:32:06;;;;;;;7.82;3.45;;;23.90;67.50;;;;;;5035950;28;20041;-71
2023/09/21 10:34:32;;;;;;;6.07;3.30;;;24.00;67.10;;;;;;5036407;28;20077;-71
2023/09/21 10:37:06;;;;;;;7.25;3.30;;;24.00;66.90;;;;;;5036347;28;20057;-71
2023/09/21 10:39:33;;;;;;;7.60;3.58;;;23.90;67.60;;;;;;5020140;28;20066;-71
2023/09/21 10:42:04;;;;;;;6.00;3.20;;;23.90;66.60;;;;;;5036501;28;20026;-71
2023/09/21 10:45:03;;;;;;;7.35;3.22;;;23.90;66.90;;;;;;5277931;23;20454;-70
2023/09/21 10:47:35;;;;;;;6.30;3.42;;;23.70;66.80;;;;;;5035946;28;20021;-69
2023/09/21 10:50:12;;;;;;;7.90;3.50;;;23.70;67.20;;;;;;5035860;28;20076;-69
2023/09/21 10:52:50;;;;;;;6.72;3.60;;;23.80;67.50;;;;;;5035647;28;20068;-69
2023/09/21 10:55:21;;;;;;;5.32;3.20;;;23.90;67.60;;;;;;5035933;28;20029;-68
2023/09/21 10:57:48;;;;;;;8.02;3.35;;;24.10;66.30;;;;;;5036246;28;20017;-69
2023/09/21 11:00:18;;;;;;;8.15;3.50;;;24.20;66.30;;;;;;5035727;28;20439;-69
2023/09/21 11:02:46;;;;;;;5.38;3.15;;;24.30;66.50;;;;;;5034734;28;20033;-69
2023/09/21 11:05:31;;;;;;;7.45;3.55;;;24.40;65.90;;;;;;5034966;28;20112;-70
2023/09/21 11:07:58;;;;;;;5.40;3.25;;;24.60;65.60;;;;;;5036184;28;20022;-70
2023/09/21 11:10:25;;;;;;;5.75;2.78;;;24.70;65.10;;;;;;5035794;28;20056;-69
2023/09/21 11:12:51;;;;;;;7.90;3.33;;;24.70;64.90;;;;;;5035430;28;20017;-70
2023/09/21 11:15:17;;;;;;;7.45;3.20;;;24.70;65.10;;;;;;5035830;28;20113;-70
2023/09/21 11:17:45;;;;;;;11.35;3.17;;;24.80;64.90;;;;;;5035697;28;20044;-70
2023/09/21 11:20:18;;;;;;;4.68;2.67;;;24.80;65.00;;;;;;5035416;28;20033;-69
2023/09/21 11:22:45;;;;;;;5.40;2.85;;;24.90;64.90;;;;;;5035913;28;20375;-70
2023/09/21 11:25:14;;;;;;;5.93;2.70;;;24.90;64.70;;;;;;5035271;28;20362;-68
2023/09/21 11:27:43;;;;;;;6.85;3.00;;;25.10;64.90;;;;;;5035334;28;20025;-70
2023/09/21 11:30:13;;;;;;;5.28;2.67;;;25.10;65.00;;;;;;5035709;28;20435;-69
2023/09/21 11:32:47;;;;;;;5.22;3.00;;;25.20;65.10;;;;;;5035493;28;20023;-70
2023/09/21 11:35:19;;;;;;;7.00;3.00;;;25.30;64.70;;;;;;5035047;28;20390;-68
2023/09/21 11:37:50;;;;;;;5.18;3.10;;;25.40;64.90;;;;;;5035179;28;20166;-68
2023/09/21 11:40:21;;;;;;;4.93;2.97;;;25.40;64.90;;;;;;5034611;28;20044;-72
2023/09/21 11:42:48;;;;;;;4.47;2.60;;;25.60;64.90;;;;;;5035052;28;20021;-68
2023/09/21 11:45:21;;;;;;;6.60;3.22;;;25.70;64.90;;;;;;5033874;28;20050;-69
2023/09/21 11:47:58;;;;;;;5.00;3.05;;;25.70;64.70;;;;;;5035146;28;20109;-68
2023/09/21 11:50:30;;;;;;;4.60;3.10;;;25.80;64.60;;;;;;5034923;28;20025;-70
2023/09/21 11:52:57;;;;;;;4.03;2.58;;;25.90;64.50;;;;;;5033948;28;20026;-70
2023/09/21 11:55:28;;;;;;;5.65;3.17;;;25.90;64.50;;;;;;5034771;28;20032;-70
2023/09/21 11:58:07;;;;;;;7.85;3.83;;;25.90;64.40;;;;;;5033919;28;20026;-70
2023/09/21 12:03:33;;;;;;;6.00;3.45;;;25.80;64.30;;;;;;4996194;28;20030;-70
2023/09/21 12:06:03;;;;;;;5.35;3.00;;;25.90;64.30;;;;;;4997344;28;20065;-69
2023/09/21 12:08:30;;;;;;;5.75;3.10;;;25.90;64.20;;;;;;4996378;28;20026;-69
2023/09/21 12:10:56;;;;;;;5.43;3.00;;;26.10;63.80;;;;;;4997935;28;20058;-69
2023/09/21 12:13:23;;;;;;;8.88;4.80;;;26.20;63.50;;;;;;4997576;28;20061;-70
2023/09/21 12:15:55;;;;;;;6.30;3.65;;;26.40;62.50;;;;;;4997380;28;20356;-69
2023/09/21 12:18:22;;;;;;;6.13;3.50;;;26.30;62.20;;;;;;4997566;28;20037;-71
2023/09/21 12:20:57;;;;;;;6.88;3.33;;;26.30;62.30;;;;;;4981838;28;20122;-69
2023/09/21 12:23:24;;;;;;;9.02;4.03;;;26.30;61.30;;;;;;4997998;28;20047;-68
2023/09/21 12:25:51;;;;;;;9.68;3.63;;;26.20;59.80;;;;;;4998016;28;20038;-68
2023/09/21 12:28:19;;;;;;;7.70;3.72;;;26.10;60.80;;;;;;4997403;28;20034;-69
2023/09/21 12:30:48;;;;;;;7.13;3.00;;;26.10;61.00;;;;;;4997332;28;20066;-69
2023/09/21 12:33:19;;;;;;;7.70;3.30;;;26.10;61.30;;;;;;4997248;28;20472;-69
2023/09/21 12:35:45;;;;;;;4.90;2.88;;;26.30;61.30;;;;;;4997146;28;20475;-70
2023/09/21 12:38:15;;;;;;;6.43;3.10;;;26.40;61.30;;;;;;5002401;28;20082;-68
2023/09/21 12:40:41;;;;;;;6.60;3.03;;;26.60;60.70;;;;;;5038785;28;20022;-69
2023/09/21 12:43:17;;;;;;;6.47;2.85;;;26.70;60.20;;;;;;5038250;28;20022;-69
2023/09/21 12:45:44;;;;;;;4.47;2.65;;;26.80;59.40;;;;;;5037955;28;20049;-70
2023/09/21 12:48:11;;;;;;;6.90;2.85;;;26.90;60.00;;;;;;5037106;28;20030;-69
2023/09/21 12:50:37;;;;;;;6.25;2.80;;;26.90;59.60;;;;;;5038040;28;20075;-69
2023/09/21 12:53:05;;;;;;;6.47;2.80;;;27.00;59.20;;;;;;5038242;28;20025;-68
2023/09/21 12:55:34;;;;;;;6.43;2.90;;;27.20;58.40;;;;;;5037205;28;20051;-69